sensor_id;sensor_type;location;lat;lon;timestamp;temperature;humidity
16412;DHT22;8315;52.104;6.304;2023-02-28T00:00:09;1.90;98.40
16412;DHT22;8315;52.104;6.304;2023-02-28T00:02:37;1.90;98.40
16412;DHT22;8315;52.104;6.304;2023-02-28T00:05:04;1.80;98.40
16412;DHT22;8315;52.104;6.304;2023-02-28T00:07:32;1.90;98.40
16412;DHT22;8315;52.104;6.304;2023-02-28T00:09:59;1.90;98.40
16412;DHT22;8315;52.104;6.304;2023-02-28T00:12:27;1.80;98.40
16412;DHT22;8315;52.104;6.304;2023-02-28T00:14:54;2.00;98.40
16412;DHT22;8315;52.104;6.304;2023-02-28T00:17:21;2.00;98.40
16412;DHT22;8315;52.104;6.304;2023-02-28T00:19:48;2.10;98.40
16412;DHT22;8315;52.104;6.304;2023-02-28T00:22:15;2.00;98.40
16412;DHT22;8315;52.104;6.304;2023-02-28T00:24:42;2.00;98.40
16412;DHT22;8315;52.104;6.304;2023-02-28T00:27:09;1.90;98.40
16412;DHT22;8315;52.104;6.304;2023-02-28T00:29:37;1.90;98.40
16412;DHT22;8315;52.104;6.304;2023-02-28T00:32:04;2.00;98.40
16412;DHT22;8315;52.104;6.304;2023-02-28T00:34:31;2.20;98.40
16412;DHT22;8315;52.104;6.304;2023-02-28T00:37:03;2.10;98.40
16412;DHT22;8315;52.104;6.304;2023-02-28T00:39:33;2.20;98.40
16412;DHT22;8315;52.104;6.304;2023-02-28T00:42:00;2.20;98.40
16412;DHT22;8315;52.104;6.304;2023-02-28T00:44:28;2.30;98.40
16412;DHT22;8315;52.104;6.304;2023-02-28T00:46:56;2.30;98.40
16412;DHT22;8315;52.104;6.304;2023-02-28T00:49:24;2.30;98.40
16412;DHT22;8315;52.104;6.304;2023-02-28T00:51:51;2.40;98.40
16412;DHT22;8315;52.104;6.304;2023-02-28T00:54:18;2.30;98.40
16412;DHT22;8315;52.104;6.304;2023-02-28T00:56:46;2.30;98.40
16412;DHT22;8315;52.104;6.304;2023-02-28T00:59:14;2.50;98.40
16412;DHT22;8315;52.104;6.304;2023-02-28T01:01:42;2.60;98.40
16412;DHT22;8315;52.104;6.304;2023-02-28T01:04:10;2.60;98.40
16412;DHT22;8315;52.104;6.304;2023-02-28T01:06:37;2.60;98.40
16412;DHT22;8315;52.104;6.304;2023-02-28T01:09:05;2.70;98.40
16412;DHT22;8315;52.104;6.304;2023-02-28T01:11:32;2.60;98.40
16412;DHT22;8315;52.104;6.304;2023-02-28T01:13:59;2.50;98.40
16412;DHT22;8315;52.104;6.304;2023-02-28T01:16:27;2.50;98.40
16412;DHT22;8315;52.104;6.304;2023-02-28T01:18:54;2.50;98.40
16412;DHT22;8315;52.104;6.304;2023-02-28T01:21:22;2.60;98.40
16412;DHT22;8315;52.104;6.304;2023-02-28T01:23:49;2.70;98.40
16412;DHT22;8315;52.104;6.304;2023-02-28T01:26:17;2.70;98.40
16412;DHT22;8315;52.104;6.304;2023-02-28T01:28:45;2.80;98.40
16412;DHT22;8315;52.104;6.304;2023-02-28T01:31:12;2.60;98.40
16412;DHT22;8315;52.104;6.304;2023-02-28T01:33:39;2.70;98.40
16412;DHT22;8315;52.104;6.304;2023-02-28T01:36:07;2.70;98.40
16412;DHT22;8315;52.104;6.304;2023-02-28T01:38:38;2.60;98.40
16412;DHT22;8315;52.104;6.304;2023-02-28T01:41:06;2.80;98.40
16412;DHT22;8315;52.104;6.304;2023-02-28T01:43:52;2.80;98.40
16412;DHT22;8315;52.104;6.304;2023-02-28T01:46:21;2.70;98.40
16412;DHT22;8315;52.104;6.304;2023-02-28T01:48:48;2.80;98.40
16412;DHT22;8315;52.104;6.304;2023-02-28T01:51:18;2.70;98.40
16412;DHT22;8315;52.104;6.304;2023-02-28T01:53:49;2.70;98.40
16412;DHT22;8315;52.104;6.304;2023-02-28T01:56:20;2.80;98.40
16412;DHT22;8315;52.104;6.304;2023-02-28T01:58:49;2.80;98.40
16412;DHT22;8315;52.104;6.304;2023-02-28T02:01:17;2.80;98.40
16412;DHT22;8315;52.104;6.304;2023-02-28T02:03:47;2.90;98.40
16412;DHT22;8315;52.104;6.304;2023-02-28T02:06:20;2.90;98.40
16412;DHT22;8315;52.104;6.304;2023-02-28T02:08:49;2.90;98.40
16412;DHT22;8315;52.104;6.304;2023-02-28T02:11:18;2.70;98.40
16412;DHT22;8315;52.104;6.304;2023-02-28T02:13:50;2.80;98.40
16412;DHT22;8315;52.104;6.304;2023-02-28T02:16:30;2.60;98.40
16412;DHT22;8315;52.104;6.304;2023-02-28T02:19:05;2.60;98.40
16412;DHT22;8315;52.104;6.304;2023-02-28T02:24:48;2.50;98.40
16412;DHT22;8315;52.104;6.304;2023-02-28T02:27:24;2.60;98.40
16412;DHT22;8315;52.104;6.304;2023-02-28T02:30:00;2.70;98.40
16412;DHT22;8315;52.104;6.304;2023-02-28T02:32:47;2.60;98.40
16412;DHT22;8315;52.104;6.304;2023-02-28T02:35:41;2.50;98.40
16412;DHT22;8315;52.104;6.304;2023-02-28T02:38:13;2.60;98.40
16412;DHT22;8315;52.104;6.304;2023-02-28T02:40:46;2.60;98.40
16412;DHT22;8315;52.104;6.304;2023-02-28T02:43:19;2.60;98.40
16412;DHT22;8315;52.104;6.304;2023-02-28T02:45:49;2.70;98.40
16412;DHT22;8315;52.104;6.304;2023-02-28T02:48:21;2.70;98.40
16412;DHT22;8315;52.104;6.304;2023-02-28T02:50:54;2.60;98.40
16412;DHT22;8315;52.104;6.304;2023-02-28T02:53:24;2.70;98.40
16412;DHT22;8315;52.104;6.304;2023-02-28T02:55:56;2.80;98.40
16412;DHT22;8315;52.104;6.304;2023-02-28T02:58:26;2.80;98.40
16412;DHT22;8315;52.104;6.304;2023-02-28T03:00:55;3.00;98.40
16412;DHT22;8315;52.104;6.304;2023-02-28T03:03:24;3.00;98.40
16412;DHT22;8315;52.104;6.304;2023-02-28T03:05:56;3.10;98.40
16412;DHT22;8315;52.104;6.304;2023-02-28T03:08:24;3.10;98.40
16412;DHT22;8315;52.104;6.304;2023-02-28T03:10:52;3.20;98.40
16412;DHT22;8315;52.104;6.304;2023-02-28T03:13:36;3.30;98.40
16412;DHT22;8315;52.104;6.304;2023-02-28T03:19:17;3.30;98.40
16412;DHT22;8315;52.104;6.304;2023-02-28T03:21:56;3.20;98.40
16412;DHT22;8315;52.104;6.304;2023-02-28T03:24:30;3.10;98.40
16412;DHT22;8315;52.104;6.304;2023-02-28T03:27:03;3.10;98.40
16412;DHT22;8315;52.104;6.304;2023-02-28T03:29:32;3.10;98.40
16412;DHT22;8315;52.104;6.304;2023-02-28T03:32:02;3.00;98.40
16412;DHT22;8315;52.104;6.304;2023-02-28T03:34:33;3.00;98.40
16412;DHT22;8315;52.104;6.304;2023-02-28T03:37:04;3.10;98.40
16412;DHT22;8315;52.104;6.304;2023-02-28T03:39:34;3.00;98.40
16412;DHT22;8315;52.104;6.304;2023-02-28T03:42:04;3.10;98.40
16412;DHT22;8315;52.104;6.304;2023-02-28T03:44:34;3.20;98.40
16412;DHT22;8315;52.104;6.304;2023-02-28T03:47:04;3.20;98.40
16412;DHT22;8315;52.104;6.304;2023-02-28T03:49:34;3.20;98.40
16412;DHT22;8315;52.104;6.304;2023-02-28T03:52:04;3.10;98.40
16412;DHT22;8315;52.104;6.304;2023-02-28T03:54:33;3.10;98.40
16412;DHT22;8315;52.104;6.304;2023-02-28T03:57:03;3.20;98.40
16412;DHT22;8315;52.104;6.304;2023-02-28T03:59:32;3.20;98.40
16412;DHT22;8315;52.104;6.304;2023-02-28T04:02:01;3.20;98.40
16412;DHT22;8315;52.104;6.304;2023-02-28T04:04:28;3.20;98.40
16412;DHT22;8315;52.104;6.304;2023-02-28T04:07:00;3.20;98.40
16412;DHT22;8315;52.104;6.304;2023-02-28T04:09:30;3.20;98.40
16412;DHT22;8315;52.104;6.304;2023-02-28T04:11:57;3.20;98.40
16412;DHT22;8315;52.104;6.304;2023-02-28T04:14:25;3.20;98.40
16412;DHT22;8315;52.104;6.304;2023-02-28T04:16:51;3.10;98.40
16412;DHT22;8315;52.104;6.304;2023-02-28T04:19:19;3.10;98.40
16412;DHT22;8315;52.104;6.304;2023-02-28T04:21:46;3.10;98.40
16412;DHT22;8315;52.104;6.304;2023-02-28T04:24:14;3.20;98.40
16412;DHT22;8315;52.104;6.304;2023-02-28T04:26:45;3.10;98.40
16412;DHT22;8315;52.104;6.304;2023-02-28T04:29:13;3.10;98.40
16412;DHT22;8315;52.104;6.304;2023-02-28T04:31:41;3.00;98.40
16412;DHT22;8315;52.104;6.304;2023-02-28T04:34:08;3.00;98.40
16412;DHT22;8315;52.104;6.304;2023-02-28T04:36:35;3.00;98.40
16412;DHT22;8315;52.104;6.304;2023-02-28T04:39:02;3.00;98.40
16412;DHT22;8315;52.104;6.304;2023-02-28T04:41:29;3.00;98.40
16412;DHT22;8315;52.104;6.304;2023-02-28T04:43:57;3.00;98.40
16412;DHT22;8315;52.104;6.304;2023-02-28T04:46:24;3.00;98.40
16412;DHT22;8315;52.104;6.304;2023-02-28T04:48:51;2.90;98.40
16412;DHT22;8315;52.104;6.304;2023-02-28T04:51:19;3.00;98.40
16412;DHT22;8315;52.104;6.304;2023-02-28T04:53:46;2.90;98.40
16412;DHT22;8315;52.104;6.304;2023-02-28T04:56:15;2.90;98.40
16412;DHT22;8315;52.104;6.304;2023-02-28T04:58:43;3.00;98.40
16412;DHT22;8315;52.104;6.304;2023-02-28T05:01:18;3.10;98.40
16412;DHT22;8315;52.104;6.304;2023-02-28T05:03:47;3.00;98.40
16412;DHT22;8315;52.104;6.304;2023-02-28T05:06:14;2.90;98.40
16412;DHT22;8315;52.104;6.304;2023-02-28T05:08:41;3.00;98.40
16412;DHT22;8315;52.104;6.304;2023-02-28T05:11:12;2.70;98.40
16412;DHT22;8315;52.104;6.304;2023-02-28T05:13:41;2.80;98.40
16412;DHT22;8315;52.104;6.304;2023-02-28T05:16:08;2.90;98.40
16412;DHT22;8315;52.104;6.304;2023-02-28T05:18:36;2.90;98.40
16412;DHT22;8315;52.104;6.304;2023-02-28T05:21:03;2.80;98.40
16412;DHT22;8315;52.104;6.304;2023-02-28T05:23:31;2.50;98.40
16412;DHT22;8315;52.104;6.304;2023-02-28T05:25:58;2.60;98.40
16412;DHT22;8315;52.104;6.304;2023-02-28T05:28:25;2.80;98.40
16412;DHT22;8315;52.104;6.304;2023-02-28T05:30:52;2.90;98.40
16412;DHT22;8315;52.104;6.304;2023-02-28T05:33:19;2.90;98.40
16412;DHT22;8315;52.104;6.304;2023-02-28T05:35:47;2.90;98.40
16412;DHT22;8315;52.104;6.304;2023-02-28T05:38:14;2.90;98.40
16412;DHT22;8315;52.104;6.304;2023-02-28T05:40:41;2.90;98.40
16412;DHT22;8315;52.104;6.304;2023-02-28T05:43:09;2.90;98.40
16412;DHT22;8315;52.104;6.304;2023-02-28T05:45:37;3.00;98.40
16412;DHT22;8315;52.104;6.304;2023-02-28T05:48:04;2.90;98.40
16412;DHT22;8315;52.104;6.304;2023-02-28T05:50:31;2.80;98.40
16412;DHT22;8315;52.104;6.304;2023-02-28T05:52:59;2.90;98.40
16412;DHT22;8315;52.104;6.304;2023-02-28T05:55:25;2.90;98.40
16412;DHT22;8315;52.104;6.304;2023-02-28T05:57:52;2.80;98.40
16412;DHT22;8315;52.104;6.304;2023-02-28T06:00:19;2.70;98.40
16412;DHT22;8315;52.104;6.304;2023-02-28T06:02:46;2.70;98.40
16412;DHT22;8315;52.104;6.304;2023-02-28T06:05:14;2.70;98.40
16412;DHT22;8315;52.104;6.304;2023-02-28T06:07:42;2.60;98.40
16412;DHT22;8315;52.104;6.304;2023-02-28T06:10:11;2.70;98.40
16412;DHT22;8315;52.104;6.304;2023-02-28T06:12:38;2.50;98.40
16412;DHT22;8315;52.104;6.304;2023-02-28T06:15:07;2.70;98.40
16412;DHT22;8315;52.104;6.304;2023-02-28T06:17:34;2.80;98.40
16412;DHT22;8315;52.104;6.304;2023-02-28T06:20:01;2.80;98.40
16412;DHT22;8315;52.104;6.304;2023-02-28T06:22:28;2.80;98.40
16412;DHT22;8315;52.104;6.304;2023-02-28T06:24:55;2.80;98.40
16412;DHT22;8315;52.104;6.304;2023-02-28T06:27:23;2.90;98.40
16412;DHT22;8315;52.104;6.304;2023-02-28T06:29:53;2.80;98.40
16412;DHT22;8315;52.104;6.304;2023-02-28T06:32:20;2.80;98.40
16412;DHT22;8315;52.104;6.304;2023-02-28T06:34:47;2.70;98.40
16412;DHT22;8315;52.104;6.304;2023-02-28T06:37:14;2.70;98.40
16412;DHT22;8315;52.104;6.304;2023-02-28T06:39:41;2.70;98.40
16412;DHT22;8315;52.104;6.304;2023-02-28T06:42:07;2.50;98.40
16412;DHT22;8315;52.104;6.304;2023-02-28T06:44:36;2.60;98.40
16412;DHT22;8315;52.104;6.304;2023-02-28T06:47:03;2.70;98.40
16412;DHT22;8315;52.104;6.304;2023-02-28T06:49:32;2.70;98.40
16412;DHT22;8315;52.104;6.304;2023-02-28T06:52:00;2.70;98.40
16412;DHT22;8315;52.104;6.304;2023-02-28T06:54:27;2.80;98.40
16412;DHT22;8315;52.104;6.304;2023-02-28T06:56:53;2.70;98.40
16412;DHT22;8315;52.104;6.304;2023-02-28T06:59:20;2.60;98.40
16412;DHT22;8315;52.104;6.304;2023-02-28T07:01:48;2.80;98.40
16412;DHT22;8315;52.104;6.304;2023-02-28T07:04:15;2.80;98.40
16412;DHT22;8315;52.104;6.304;2023-02-28T07:06:42;2.90;98.40
16412;DHT22;8315;52.104;6.304;2023-02-28T07:09:09;2.90;98.40
16412;DHT22;8315;52.104;6.304;2023-02-28T07:11:36;2.90;98.40
16412;DHT22;8315;52.104;6.304;2023-02-28T07:14:03;3.00;98.40
16412;DHT22;8315;52.104;6.304;2023-02-28T07:16:30;3.00;98.40
16412;DHT22;8315;52.104;6.304;2023-02-28T07:18:58;3.20;98.40
16412;DHT22;8315;52.104;6.304;2023-02-28T07:21:25;3.10;98.40
16412;DHT22;8315;52.104;6.304;2023-02-28T07:23:51;2.90;98.40
16412;DHT22;8315;52.104;6.304;2023-02-28T07:26:19;3.00;98.40
16412;DHT22;8315;52.104;6.304;2023-02-28T07:28:47;2.90;98.40
16412;DHT22;8315;52.104;6.304;2023-02-28T07:31:14;2.80;98.40
16412;DHT22;8315;52.104;6.304;2023-02-28T07:33:42;2.90;98.40
16412;DHT22;8315;52.104;6.304;2023-02-28T07:36:11;3.00;98.40
16412;DHT22;8315;52.104;6.304;2023-02-28T07:38:44;3.10;98.40
16412;DHT22;8315;52.104;6.304;2023-02-28T07:41:13;3.20;98.40
16412;DHT22;8315;52.104;6.304;2023-02-28T07:43:40;3.30;98.40
16412;DHT22;8315;52.104;6.304;2023-02-28T07:46:07;3.40;98.40
16412;DHT22;8315;52.104;6.304;2023-02-28T07:48:35;3.50;98.40
16412;DHT22;8315;52.104;6.304;2023-02-28T07:51:02;3.60;98.40
16412;DHT22;8315;52.104;6.304;2023-02-28T07:53:31;3.50;98.40
16412;DHT22;8315;52.104;6.304;2023-02-28T07:55:58;3.50;98.40
16412;DHT22;8315;52.104;6.304;2023-02-28T07:58:26;3.60;98.40
16412;DHT22;8315;52.104;6.304;2023-02-28T08:00:54;3.50;98.40
16412;DHT22;8315;52.104;6.304;2023-02-28T08:03:21;3.50;98.40
16412;DHT22;8315;52.104;6.304;2023-02-28T08:05:49;3.60;98.40
16412;DHT22;8315;52.104;6.304;2023-02-28T08:08:17;3.50;96.70
16412;DHT22;8315;52.104;6.304;2023-02-28T08:10:45;3.50;96.10
16412;DHT22;8315;52.104;6.304;2023-02-28T08:13:12;3.50;95.90
16412;DHT22;8315;52.104;6.304;2023-02-28T08:15:40;3.50;95.10
16412;DHT22;8315;52.104;6.304;2023-02-28T08:18:07;3.70;95.60
16412;DHT22;8315;52.104;6.304;2023-02-28T08:20:33;3.80;96.10
16412;DHT22;8315;52.104;6.304;2023-02-28T08:23:00;4.00;96.00
16412;DHT22;8315;52.104;6.304;2023-02-28T08:25:27;4.00;95.20
16412;DHT22;8315;52.104;6.304;2023-02-28T08:27:55;3.80;93.50
16412;DHT22;8315;52.104;6.304;2023-02-28T08:30:22;3.80;94.00
16412;DHT22;8315;52.104;6.304;2023-02-28T08:32:49;4.00;93.80
16412;DHT22;8315;52.104;6.304;2023-02-28T08:35:16;4.00;91.80
16412;DHT22;8315;52.104;6.304;2023-02-28T08:37:43;4.00;90.30
16412;DHT22;8315;52.104;6.304;2023-02-28T08:40:11;4.10;90.90
16412;DHT22;8315;52.104;6.304;2023-02-28T08:42:43;4.10;89.80
16412;DHT22;8315;52.104;6.304;2023-02-28T08:45:11;4.10;88.00
16412;DHT22;8315;52.104;6.304;2023-02-28T08:47:38;4.20;86.90
16412;DHT22;8315;52.104;6.304;2023-02-28T08:50:05;4.30;87.20
16412;DHT22;8315;52.104;6.304;2023-02-28T08:52:33;4.40;86.90
16412;DHT22;8315;52.104;6.304;2023-02-28T08:55:00;4.40;85.30
16412;DHT22;8315;52.104;6.304;2023-02-28T08:57:26;4.50;85.40
16412;DHT22;8315;52.104;6.304;2023-02-28T08:59:53;4.70;84.80
16412;DHT22;8315;52.104;6.304;2023-02-28T09:02:21;4.90;84.60
16412;DHT22;8315;52.104;6.304;2023-02-28T09:04:48;4.90;80.40
16412;DHT22;8315;52.104;6.304;2023-02-28T09:07:15;5.00;80.20
16412;DHT22;8315;52.104;6.304;2023-02-28T09:09:42;5.10;78.60
16412;DHT22;8315;52.104;6.304;2023-02-28T09:12:19;5.30;79.00
16412;DHT22;8315;52.104;6.304;2023-02-28T09:14:45;5.60;78.70
16412;DHT22;8315;52.104;6.304;2023-02-28T09:17:12;5.90;78.70
16412;DHT22;8315;52.104;6.304;2023-02-28T09:19:40;6.10;77.80
16412;DHT22;8315;52.104;6.304;2023-02-28T09:22:08;6.10;75.40
16412;DHT22;8315;52.104;6.304;2023-02-28T09:24:35;6.20;75.70
16412;DHT22;8315;52.104;6.304;2023-02-28T09:27:02;6.30;75.60
16412;DHT22;8315;52.104;6.304;2023-02-28T09:29:29;6.50;74.90
16412;DHT22;8315;52.104;6.304;2023-02-28T09:31:56;6.40;73.30
16412;DHT22;8315;52.104;6.304;2023-02-28T09:34:24;6.50;73.30
16412;DHT22;8315;52.104;6.304;2023-02-28T09:36:52;6.50;72.50
16412;DHT22;8315;52.104;6.304;2023-02-28T09:39:20;6.60;73.50
16412;DHT22;8315;52.104;6.304;2023-02-28T09:41:47;6.50;72.50
16412;DHT22;8315;52.104;6.304;2023-02-28T09:44:17;6.20;70.80
16412;DHT22;8315;52.104;6.304;2023-02-28T09:46:49;6.20;73.30
16412;DHT22;8315;52.104;6.304;2023-02-28T09:49:19;6.20;73.40
16412;DHT22;8315;52.104;6.304;2023-02-28T09:51:50;6.30;73.00
16412;DHT22;8315;52.104;6.304;2023-02-28T09:54:21;6.20;74.00
16412;DHT22;8315;52.104;6.304;2023-02-28T09:56:50;6.50;74.60
16412;DHT22;8315;52.104;6.304;2023-02-28T09:59:23;6.80;74.50
16412;DHT22;8315;52.104;6.304;2023-02-28T10:01:57;6.60;72.70
16412;DHT22;8315;52.104;6.304;2023-02-28T10:04:35;6.10;71.40
16412;DHT22;8315;52.104;6.304;2023-02-28T10:07:10;6.00;71.90
16412;DHT22;8315;52.104;6.304;2023-02-28T10:09:45;6.10;74.10
16412;DHT22;8315;52.104;6.304;2023-02-28T10:12:13;6.00;71.60
16412;DHT22;8315;52.104;6.304;2023-02-28T10:14:41;6.10;72.30
16412;DHT22;8315;52.104;6.304;2023-02-28T10:17:12;6.20;72.90
16412;DHT22;8315;52.104;6.304;2023-02-28T10:19:41;6.20;73.50
16412;DHT22;8315;52.104;6.304;2023-02-28T10:22:14;6.40;74.50
16412;DHT22;8315;52.104;6.304;2023-02-28T10:24:43;6.20;72.40
16412;DHT22;8315;52.104;6.304;2023-02-28T10:27:13;6.20;73.90
16412;DHT22;8315;52.104;6.304;2023-02-28T10:29:42;6.20;72.80
16412;DHT22;8315;52.104;6.304;2023-02-28T10:32:10;6.20;73.10
16412;DHT22;8315;52.104;6.304;2023-02-28T10:34:39;5.90;72.90
16412;DHT22;8315;52.104;6.304;2023-02-28T10:37:06;6.20;73.50
16412;DHT22;8315;52.104;6.304;2023-02-28T10:39:36;6.30;72.50
16412;DHT22;8315;52.104;6.304;2023-02-28T10:42:04;6.20;72.60
16412;DHT22;8315;52.104;6.304;2023-02-28T10:44:31;6.50;73.60
16412;DHT22;8315;52.104;6.304;2023-02-28T10:46:58;6.50;72.90
16412;DHT22;8315;52.104;6.304;2023-02-28T10:49:25;6.60;74.10
16412;DHT22;8315;52.104;6.304;2023-02-28T10:51:54;6.40;72.50
16412;DHT22;8315;52.104;6.304;2023-02-28T10:54:24;6.30;72.70
16412;DHT22;8315;52.104;6.304;2023-02-28T10:57:11;6.40;73.70
16412;DHT22;8315;52.104;6.304;2023-02-28T10:59:44;6.30;74.30
16412;DHT22;8315;52.104;6.304;2023-02-28T11:04:57;6.40;74.50
16412;DHT22;8315;52.104;6.304;2023-02-28T11:07:25;6.80;78.90
16412;DHT22;8315;52.104;6.304;2023-02-28T11:09:53;6.80;74.90
16412;DHT22;8315;52.104;6.304;2023-02-28T11:12:23;6.60;73.70
16412;DHT22;8315;52.104;6.304;2023-02-28T11:14:52;6.90;75.10
16412;DHT22;8315;52.104;6.304;2023-02-28T11:17:20;7.20;75.60
16412;DHT22;8315;52.104;6.304;2023-02-28T11:19:49;7.40;74.70
16412;DHT22;8315;52.104;6.304;2023-02-28T11:22:18;7.00;73.30
16412;DHT22;8315;52.104;6.304;2023-02-28T11:24:48;7.00;74.70
16412;DHT22;8315;52.104;6.304;2023-02-28T11:27:39;7.10;75.10
16412;DHT22;8315;52.104;6.304;2023-02-28T11:32:56;7.20;75.20
16412;DHT22;8315;52.104;6.304;2023-02-28T11:35:25;7.00;72.70
16412;DHT22;8315;52.104;6.304;2023-02-28T11:37:53;7.10;73.50
16412;DHT22;8315;52.104;6.304;2023-02-28T11:40:22;7.30;74.30
16412;DHT22;8315;52.104;6.304;2023-02-28T11:43:00;7.60;73.70
16412;DHT22;8315;52.104;6.304;2023-02-28T11:45:41;7.60;72.40
16412;DHT22;8315;52.104;6.304;2023-02-28T11:48:14;7.10;71.40
16412;DHT22;8315;52.104;6.304;2023-02-28T11:50:47;7.00;71.80
16412;DHT22;8315;52.104;6.304;2023-02-28T11:53:21;7.10;72.20
16412;DHT22;8315;52.104;6.304;2023-02-28T11:55:51;7.20;71.90
16412;DHT22;8315;52.104;6.304;2023-02-28T11:58:26;7.50;72.80
16412;DHT22;8315;52.104;6.304;2023-02-28T12:00:59;7.80;72.40
16412;DHT22;8315;52.104;6.304;2023-02-28T12:03:32;7.70;72.30
16412;DHT22;8315;52.104;6.304;2023-02-28T12:06:16;7.60;71.40
16412;DHT22;8315;52.104;6.304;2023-02-28T12:08:49;7.70;71.80
16412;DHT22;8315;52.104;6.304;2023-02-28T12:11:26;7.80;71.50
16412;DHT22;8315;52.104;6.304;2023-02-28T12:14:10;7.80;70.50
16412;DHT22;8315;52.104;6.304;2023-02-28T12:16:49;7.80;69.70
16412;DHT22;8315;52.104;6.304;2023-02-28T12:19:23;8.10;70.10
16412;DHT22;8315;52.104;6.304;2023-02-28T12:22:05;8.30;69.00
16412;DHT22;8315;52.104;6.304;2023-02-28T12:24:55;7.90;68.20
16412;DHT22;8315;52.104;6.304;2023-02-28T12:27:29;8.00;69.70
16412;DHT22;8315;52.104;6.304;2023-02-28T12:30:00;8.10;70.30
16412;DHT22;8315;52.104;6.304;2023-02-28T12:32:30;8.00;68.00
16412;DHT22;8315;52.104;6.304;2023-02-28T12:35:04;8.00;67.40
16412;DHT22;8315;52.104;6.304;2023-02-28T12:37:38;8.20;67.80
16412;DHT22;8315;52.104;6.304;2023-02-28T12:40:07;8.60;69.40
16412;DHT22;8315;52.104;6.304;2023-02-28T12:42:39;8.90;69.10
16412;DHT22;8315;52.104;6.304;2023-02-28T12:45:10;8.60;66.70
16412;DHT22;8315;52.104;6.304;2023-02-28T12:47:39;8.60;66.80
16412;DHT22;8315;52.104;6.304;2023-02-28T12:50:09;8.70;66.30
16412;DHT22;8315;52.104;6.304;2023-02-28T12:52:39;9.00;68.30
16412;DHT22;8315;52.104;6.304;2023-02-28T12:55:12;9.50;68.30
16412;DHT22;8315;52.104;6.304;2023-02-28T12:57:43;9.50;67.80
16412;DHT22;8315;52.104;6.304;2023-02-28T13:00:17;9.80;68.30
16412;DHT22;8315;52.104;6.304;2023-02-28T13:05:57;9.30;66.60
16412;DHT22;8315;52.104;6.304;2023-02-28T13:08:37;9.60;67.60
16412;DHT22;8315;52.104;6.304;2023-02-28T13:11:24;9.60;65.60
16412;DHT22;8315;52.104;6.304;2023-02-28T13:13:56;9.50;65.70
16412;DHT22;8315;52.104;6.304;2023-02-28T13:16:26;9.30;66.00
16412;DHT22;8315;52.104;6.304;2023-02-28T13:18:52;9.20;66.00
16412;DHT22;8315;52.104;6.304;2023-02-28T13:21:41;9.20;65.70
16412;DHT22;8315;52.104;6.304;2023-02-28T13:24:09;9.20;65.10
16412;DHT22;8315;52.104;6.304;2023-02-28T13:29:38;9.40;65.60
16412;DHT22;8315;52.104;6.304;2023-02-28T13:35:12;9.20;64.50
16412;DHT22;8315;52.104;6.304;2023-02-28T13:37:42;9.00;65.50
16412;DHT22;8315;52.104;6.304;2023-02-28T13:40:29;9.50;65.70
16412;DHT22;8315;52.104;6.304;2023-02-28T13:43:02;9.40;64.60
16412;DHT22;8315;52.104;6.304;2023-02-28T13:45:30;9.70;66.40
16412;DHT22;8315;52.104;6.304;2023-02-28T13:48:05;9.40;64.90
16412;DHT22;8315;52.104;6.304;2023-02-28T13:50:43;9.10;65.30
16412;DHT22;8315;52.104;6.304;2023-02-28T13:56:06;9.80;64.70
16412;DHT22;8315;52.104;6.304;2023-02-28T13:58:39;9.70;65.00
16412;DHT22;8315;52.104;6.304;2023-02-28T14:04:06;10.20;63.80
16412;DHT22;8315;52.104;6.304;2023-02-28T14:06:46;10.60;65.40
16412;DHT22;8315;52.104;6.304;2023-02-28T14:09:16;10.40;63.10
16412;DHT22;8315;52.104;6.304;2023-02-28T14:11:46;10.00;62.80
16412;DHT22;8315;52.104;6.304;2023-02-28T14:17:14;10.10;63.80
16412;DHT22;8315;52.104;6.304;2023-02-28T14:19:44;10.70;63.70
16412;DHT22;8315;52.104;6.304;2023-02-28T14:22:16;10.60;63.70
16412;DHT22;8315;52.104;6.304;2023-02-28T14:24:59;10.60;62.50
16412;DHT22;8315;52.104;6.304;2023-02-28T14:27:42;10.80;62.40
16412;DHT22;8315;52.104;6.304;2023-02-28T14:30:15;10.80;62.50
16412;DHT22;8315;52.104;6.304;2023-02-28T14:32:56;11.00;61.90
16412;DHT22;8315;52.104;6.304;2023-02-28T14:35:35;11.10;61.30
16412;DHT22;8315;52.104;6.304;2023-02-28T14:38:13;10.60;61.20
16412;DHT22;8315;52.104;6.304;2023-02-28T14:40:41;10.70;62.30
16412;DHT22;8315;52.104;6.304;2023-02-28T14:43:19;10.80;61.30
16412;DHT22;8315;52.104;6.304;2023-02-28T14:45:49;10.90;62.80
16412;DHT22;8315;52.104;6.304;2023-02-28T14:48:16;11.10;61.70
16412;DHT22;8315;52.104;6.304;2023-02-28T14:50:49;11.10;61.70
16412;DHT22;8315;52.104;6.304;2023-02-28T14:53:18;10.70;62.00
16412;DHT22;8315;52.104;6.304;2023-02-28T14:55:47;10.50;60.80
16412;DHT22;8315;52.104;6.304;2023-02-28T14:58:20;10.70;60.80
16412;DHT22;8315;52.104;6.304;2023-02-28T15:00:50;10.50;61.30
16412;DHT22;8315;52.104;6.304;2023-02-28T15:03:19;10.60;61.40
16412;DHT22;8315;52.104;6.304;2023-02-28T15:05:52;10.80;62.00
16412;DHT22;8315;52.104;6.304;2023-02-28T15:08:19;11.20;61.50
16412;DHT22;8315;52.104;6.304;2023-02-28T15:10:50;11.30;61.30
16412;DHT22;8315;52.104;6.304;2023-02-28T15:13:19;10.80;61.90
16412;DHT22;8315;52.104;6.304;2023-02-28T15:15:47;10.70;61.50
16412;DHT22;8315;52.104;6.304;2023-02-28T15:18:21;10.70;61.30
16412;DHT22;8315;52.104;6.304;2023-02-28T15:20:51;10.70;62.50
16412;DHT22;8315;52.104;6.304;2023-02-28T15:23:19;11.20;62.40
16412;DHT22;8315;52.104;6.304;2023-02-28T15:25:47;11.40;61.50
16412;DHT22;8315;52.104;6.304;2023-02-28T15:28:15;11.20;61.50
16412;DHT22;8315;52.104;6.304;2023-02-28T15:30:50;11.00;61.00
16412;DHT22;8315;52.104;6.304;2023-02-28T15:33:20;10.80;61.80
16412;DHT22;8315;52.104;6.304;2023-02-28T15:35:48;11.10;63.20
16412;DHT22;8315;52.104;6.304;2023-02-28T15:38:18;10.80;61.80
16412;DHT22;8315;52.104;6.304;2023-02-28T15:40:50;10.60;62.30
16412;DHT22;8315;52.104;6.304;2023-02-28T15:43:23;10.70;61.80
16412;DHT22;8315;52.104;6.304;2023-02-28T15:45:51;10.60;62.30
16412;DHT22;8315;52.104;6.304;2023-02-28T15:48:20;10.40;63.00
16412;DHT22;8315;52.104;6.304;2023-02-28T15:50:48;10.80;62.50
16412;DHT22;8315;52.104;6.304;2023-02-28T15:53:19;10.70;63.00
16412;DHT22;8315;52.104;6.304;2023-02-28T15:55:52;10.50;63.10
16412;DHT22;8315;52.104;6.304;2023-02-28T15:58:24;10.40;63.70
16412;DHT22;8315;52.104;6.304;2023-02-28T16:01:03;10.80;62.90
16412;DHT22;8315;52.104;6.304;2023-02-28T16:03:37;10.50;63.20
16412;DHT22;8315;52.104;6.304;2023-02-28T16:09:03;11.00;63.70
16412;DHT22;8315;52.104;6.304;2023-02-28T16:11:30;11.20;62.80
16412;DHT22;8315;52.104;6.304;2023-02-28T16:13:59;10.80;62.40
16412;DHT22;8315;52.104;6.304;2023-02-28T16:16:26;10.40;62.90
16412;DHT22;8315;52.104;6.304;2023-02-28T16:18:53;10.50;64.10
16412;DHT22;8315;52.104;6.304;2023-02-28T16:21:20;10.80;63.10
16412;DHT22;8315;52.104;6.304;2023-02-28T16:23:47;10.70;62.30
16412;DHT22;8315;52.104;6.304;2023-02-28T16:26:18;10.20;62.50
16412;DHT22;8315;52.104;6.304;2023-02-28T16:28:48;9.70;63.40
16412;DHT22;8315;52.104;6.304;2023-02-28T16:31:15;9.90;64.40
16412;DHT22;8315;52.104;6.304;2023-02-28T16:33:43;10.00;64.10
16412;DHT22;8315;52.104;6.304;2023-02-28T16:36:12;10.10;64.10
16412;DHT22;8315;52.104;6.304;2023-02-28T16:38:40;9.80;64.10
16412;DHT22;8315;52.104;6.304;2023-02-28T16:41:07;9.80;64.80
16412;DHT22;8315;52.104;6.304;2023-02-28T16:43:46;9.80;64.70
16412;DHT22;8315;52.104;6.304;2023-02-28T16:46:14;9.60;65.00
16412;DHT22;8315;52.104;6.304;2023-02-28T16:48:41;9.40;64.60